| Date | Temp | Humidity | Rainfall | Dew Point | Wind Direction | Wind Speed | Wind Pressure | Condition | Visibility |
|---|---|---|---|---|---|---|---|---|---|
| 2025-03-23 22:00:27 | 27 | 86 | 25 | 010 | 7.6 | 1012 | Partly Cloudy (Night) | 10KM | |
| 2025-03-23 20:56:37 | 27 | 86 | 0.0 | 25 | 03 | 6.0 | 1011 | Partly Cloudy (Night) | 10 KM |
| 2025-03-23 19:56:26 | 27 | 86 | 0.0 | 25 | 040 | 7.0 | 1010 | Partly Cloudy (Night) | 10 KM |
| 2025-03-23 18:56:49 | 27 | 88 | 0.0 | 24 | 020 | 9.0 | 1009 | Partly Cloudy (Day) | 10 KM |
| 2025-03-23 17:57:18 | 28 | 80 | 0.0 | 24 | 020 | 9.0 | 1009 | Partly Cloudy (Day) | 10 KM |
| 2025-03-23 16:58:18 | 29 | 75 | 24 | 010 | 20.9 | 1009 | Partly Cloudy (Day) | 20 KM | |
| 2025-03-23 15:59:41 | 28 | 78 | 24 | 020 | 19.0 | 1008 | Partly Cloudy (Day) | 20 KM | |
| 2025-03-23 14:57:13 | 30 | 70 | 24 | 020 | 19.0 | 1009 | Partly Cloudy (Day) | 20 KM | |
| 2025-03-23 13:54:14 | 30 | 73 | 24 | 010 | 20.9 | 1010 | Partly Cloudy (Day) | 20 KM | |
| 2025-03-23 12:58:22 | 30 | 72 | 24 | 010 | 17.1 | 1011 | Cloudy | 20KM | |
| 2025-03-23 11:59:04 | 30 | 71 | 24 | 010 | 17.1 | 1012 | Cloudy | 20KM | |
| 2025-03-23 11:00:24 | 29 | 74 | 24 | 010 | 13.3 | 1013 | Cloudy | 20KM | |
| 2025-03-23 10:00:09 | 29 | 74 | 0.0 | 24 | 020 | 11.4 | 1013 | Cloudy | 20KM |
| 2025-03-23 09:00:56 | 28 | 78 | 0.0 | 24 | 010 | 11.4 | 1013 | Cloudy | 20KM |
| 2025-03-23 07:59:23 | 26 | 92 | 25 | 010 | 5.7 | 1012 | Partly Cloudy (Day) | 15 km | |
| 2025-03-23 06:58:49 | 25 | 95 | 25 | 090 | 1.9 | 1012 | Mist | 09 km | |
| 2025-03-23 05:58:24 | 25 | 96 | 25 | 180 | 1.9 | 1011 | Partly Cloudy (Day) | 10 km | |
| 2025-03-23 04:58:19 | 25 | 95 | 25 | 190 | 5.7 | 1011 | Partly Cloudy (Night) | 10 km | |
| 2025-03-23 03:59:42 | 26 | 94 | 25 | 180 | 3.8 | 1011 | Partly Cloudy (Night) | 10 km | |
| 2025-03-23 03:00:17 | 26 | 94 | 25 | 150 | 1.9 | 1011 | Partly Cloudy (Night) | 10 km | |
| 2025-03-23 02:02:39 | 26 | 93 | 0.00 | 25 | 160 | 3.8 | 1011 | Cloudy | 10 KM |
| 2025-03-23 00:58:54 | 26 | 90 | 0.00 | 25 | 170 | 1.9 | 1012 | Cloudy | 10 KM |
| 2025-03-23 00:05:44 | 26 | 90 | 0.00 | 24 | 070 | 3.8 | 1012 | Cloudy | 10 KM |
| 2025-03-22 23:00:36 | 27 | 87 | 0.00 | 24 | 030 | 13.3 | 1013 | Cloudy | 10 KM |
| 2025-03-22 21:59:44 | 27 | 87 | 0.00 | 25 | 040 | 9.5 | 1013 | Showers | 10 KM |